Time;durP1;ratioP1;P1;durP2;ratioP2;P2;SDS_P1;SDS_P2;PMS_P1;PMS_P2;Temp;Humidity;BMP_temperature;BMP_pressure;BME280_temperature;BME280_humidity;BME280_pressure;Samples;Min_cycle;Max_cycle;Signal;HPM_P1;HPM_P2
2021/07/22 00:00:20;;;;;;;4.35;2.85;;;;;;;;;;5073127;28;20053;-78
2021/07/22 00:02:48;;;;;;;4.63;2.83;;;;;;;;;;5073146;28;20102;-78
2021/07/22 00:05:15;;;;;;;4.35;2.35;;;;;;;;;;5073035;28;20044;-78
2021/07/22 00:07:44;;;;;;;4.18;2.10;;;;;;;;;;5073418;28;20045;-78
2021/07/22 00:10:11;;;;;;;5.55;2.40;;;;;;;;;;5072828;28;20972;-78
2021/07/22 00:12:37;;;;;;;3.78;2.58;;;;;;;;;;5073270;28;20101;-78
2021/07/22 00:15:04;;;;;;;5.50;2.30;;;;;;;;;;5072264;28;20427;-78
2021/07/22 00:17:31;;;;;;;4.75;2.33;;;;;;;;;;5072799;28;20052;-78
2021/07/22 00:20:00;;;;;;;8.27;2.75;;;;;;;;;;5072718;28;20109;-78
2021/07/22 00:22:27;;;;;;;5.18;2.60;;;;;;;;;;5073052;28;20052;-78
2021/07/22 00:24:54;;;;;;;4.45;2.28;;;;;;;;;;5072876;28;20044;-78
2021/07/22 00:27:21;;;;;;;6.88;2.75;;;;;;;;;;5073005;28;20044;-78
2021/07/22 00:29:48;;;;;;;3.38;2.72;;;;;;;;;;5072813;28;20056;-78
2021/07/22 00:32:14;;;;;;;3.08;2.08;;;;;;;;;;5072638;28;20056;-78
2021/07/22 00:34:41;;;;;;;7.78;2.67;;;;;;;;;;5072888;28;20045;-78
2021/07/22 00:37:07;;;;;;;4.53;2.70;;;;;;;;;;5072674;28;20492;-78
2021/07/22 00:39:36;;;;;;;4.93;2.38;;;;;;;;;;5072816;28;20408;-78
2021/07/22 00:42:04;;;;;;;3.53;1.95;;;;;;;;;;5072661;28;20420;-78
2021/07/22 00:44:31;;;;;;;3.40;2.22;;;;;;;;;;5072618;28;20486;-78
2021/07/22 00:46:57;;;;;;;3.40;2.05;;;;;;;;;;5072468;28;20094;-78
2021/07/22 00:49:24;;;;;;;4.00;2.63;;;;;;;;;;5072681;28;20048;-78
2021/07/22 00:51:50;;;;;;;3.53;1.90;;;;;;;;;;5071679;28;20098;-78
2021/07/22 00:54:17;;;;;;;4.63;2.22;;;;;;;;;;5072270;28;20526;-78
2021/07/22 00:56:43;;;;;;;3.08;2.42;;;;;;;;;;5072325;28;20063;-78
2021/07/22 00:59:11;;;;;;;5.05;2.25;;;;;;;;;;5072167;28;20485;-78
2021/07/22 01:01:38;;;;;;;2.17;1.55;;;;;;;;;;5072266;28;20052;-78
2021/07/22 01:04:04;;;;;;;3.55;2.30;;;;;;;;;;5072349;28;20057;-78
2021/07/22 01:06:31;;;;;;;6.18;4.10;;;;;;;;;;5072061;28;20048;-78
2021/07/22 01:08:58;;;;;;;3.33;1.63;;;;;;;;;;5071969;28;20048;-78
2021/07/22 01:11:24;;;;;;;5.72;3.55;;;;;;;;;;5072010;28;20067;-78
2021/07/22 01:13:51;;;;;;;6.10;2.35;;;;;;;;;;5071856;28;20364;-78
2021/07/22 01:16:19;;;;;;;2.33;1.92;;;;;;;;;;5072057;28;20049;-78
2021/07/22 01:18:45;;;;;;;4.35;2.40;;;;;;;;;;5071852;28;20044;-78
2021/07/22 01:21:14;;;;;;;5.95;3.20;;;;;;;;;;5071916;28;20044;-78
2021/07/22 01:23:40;;;;;;;3.42;1.85;;;;;;;;;;5072150;28;20044;-78
2021/07/22 01:26:07;;;;;;;4.47;2.97;;;;;;;;;;5072034;28;20064;-78
2021/07/22 01:28:33;;;;;;;3.72;2.90;;;;;;;;;;5071467;28;20094;-78
2021/07/22 01:31:00;;;;;;;2.30;1.60;;;;;;;;;;5071548;28;20056;-78
2021/07/22 01:33:26;;;;;;;7.40;3.33;;;;;;;;;;5071508;28;20090;-78
2021/07/22 01:35:53;;;;;;;4.20;2.30;;;;;;;;;;4371811;28;20001446;-78
2021/07/22 01:38:20;;;;;;;6.25;3.05;;;;;;;;;;5071586;28;20049;-78
2021/07/22 01:40:47;;;;;;;4.20;2.88;;;;;;;;;;5071266;28;20493;-79
2021/07/22 01:43:13;;;;;;;4.60;2.45;;;;;;;;;;5071263;28;20053;-77
2021/07/22 01:45:40;;;;;;;3.38;2.40;;;;;;;;;;5071768;28;20048;-78
2021/07/22 01:48:07;;;;;;;3.00;2.15;;;;;;;;;;5071416;28;20067;-78
2021/07/22 01:50:33;;;;;;;5.95;3.38;;;;;;;;;;5071359;28;20060;-78
2021/07/22 01:53:01;;;;;;;5.20;2.60;;;;;;;;;;5071130;28;20053;-78
2021/07/22 01:55:28;;;;;;;4.05;2.70;;;;;;;;;;5071017;28;20130;-78
2021/07/22 01:57:58;;;;;;;4.93;3.03;;;;;;;;;;5071205;28;20384;-78
2021/07/22 02:00:24;;;;;;;4.05;3.25;;;;;;;;;;5071291;28;20094;-78
2021/07/22 02:02:51;;;;;;;4.88;3.58;;;;;;;;;;5070066;28;20056;-78
2021/07/22 02:05:17;;;;;;;4.80;3.83;;;;;;;;;;5070968;28;20053;-78
2021/07/22 02:07:44;;;;;;;7.47;4.78;;;;;;;;;;5071011;28;20106;-77
2021/07/22 02:10:10;;;;;;;6.57;3.33;;;;;;;;;;5070823;28;20049;-78
2021/07/22 02:12:38;;;;;;;8.68;3.72;;;;;;;;;;5070851;28;20452;-78
2021/07/22 02:15:05;;;;;;;6.05;3.35;;;;;;;;;;5071059;28;20463;-78
2021/07/22 02:17:32;;;;;;;4.78;3.08;;;;;;;;;;5070970;28;20045;-78
2021/07/22 02:19:59;;;;;;;6.32;2.88;;;;;;;;;;5071077;28;20041;-78
2021/07/22 02:22:25;;;;;;;5.75;2.30;;;;;;;;;;5070752;28;20052;-78
2021/07/22 02:24:52;;;;;;;5.53;4.07;;;;;;;;;;5070744;28;20056;-78
2021/07/22 02:27:18;;;;;;;4.05;2.10;;;;;;;;;;5070721;28;20045;-78
2021/07/22 02:29:46;;;;;;;5.35;3.50;;;;;;;;;;5070681;28;20056;-78
2021/07/22 02:32:13;;;;;;;3.75;2.80;;;;;;;;;;5071024;28;20052;-78
2021/07/22 02:34:39;;;;;;;3.72;2.97;;;;;;;;;;5070772;28;20053;-78
2021/07/22 02:37:06;;;;;;;6.13;2.92;;;;;;;;;;5070656;28;20045;-78
2021/07/22 02:39:35;;;;;;;5.38;2.85;;;;;;;;;;5070625;28;20048;-78
2021/07/22 02:42:02;;;;;;;4.55;2.83;;;;;;;;;;5070491;28;20052;-78
2021/07/22 02:44:28;;;;;;;4.43;2.70;;;;;;;;;;5070537;28;20598;-78
2021/07/22 02:46:56;;;;;;;3.05;2.03;;;;;;;;;;5070641;28;20106;-78
2021/07/22 02:49:23;;;;;;;3.80;2.05;;;;;;;;;;5070561;28;20040;-78
2021/07/22 02:51:49;;;;;;;5.13;3.80;;;;;;;;;;5070534;28;20110;-78
2021/07/22 02:54:16;;;;;;;3.67;2.80;;;;;;;;;;5070416;28;20424;-78
2021/07/22 02:56:42;;;;;;;7.68;2.47;;;;;;;;;;5070729;28;20049;-78
2021/07/22 02:59:09;;;;;;;6.45;3.38;;;;;;;;;;5070706;28;21391;-78
2021/07/22 03:01:35;;;;;;;6.20;3.80;;;;;;;;;;5070336;28;20044;-78
2021/07/22 03:04:03;;;;;;;5.57;2.53;;;;;;;;;;5070468;28;20094;-78
2021/07/22 03:06:29;;;;;;;5.65;4.18;;;;;;;;;;5070224;28;20094;-78
2021/07/22 03:08:56;;;;;;;4.30;2.45;;;;;;;;;;5070589;28;20500;-78
2021/07/22 03:11:23;;;;;;;4.80;2.50;;;;;;;;;;5070471;28;20106;-78
2021/07/22 03:13:49;;;;;;;4.05;3.28;;;;;;;;;;5071404;28;20048;-78
2021/07/22 03:16:16;;;;;;;4.55;2.50;;;;;;;;;;5074229;28;20059;-79
2021/07/22 03:18:42;;;;;;;11.45;3.95;;;;;;;;;;5074158;28;20052;-78
2021/07/22 03:21:11;;;;;;;4.32;2.10;;;;;;;;;;5073823;28;20078;-78
2021/07/22 03:23:37;;;;;;;5.13;2.78;;;;;;;;;;5074034;28;20106;-78
2021/07/22 03:26:04;;;;;;;5.43;2.92;;;;;;;;;;5074115;28;20413;-78
2021/07/22 03:28:30;;;;;;;2.50;1.30;;;;;;;;;;5073995;28;20102;-78
2021/07/22 03:30:57;;;;;;;4.65;2.95;;;;;;;;;;5073956;28;20125;-78
2021/07/22 03:33:23;;;;;;;4.13;2.05;;;;;;;;;;5073827;28;20459;-78
2021/07/22 03:35:50;;;;;;;4.95;3.10;;;;;;;;;;5074092;28;20390;-78
2021/07/22 03:38:18;;;;;;;4.50;2.72;;;;;;;;;;5073954;28;20048;-78
2021/07/22 03:40:44;;;;;;;5.65;2.70;;;;;;;;;;5073887;28;20055;-78
2021/07/22 03:43:10;;;;;;;5.50;4.13;;;;;;;;;;5073606;28;20093;-78
2021/07/22 03:45:37;;;;;;;3.63;2.05;;;;;;;;;;5073569;28;20048;-79
2021/07/22 03:48:04;;;;;;;8.55;2.38;;;;;;;;;;5073462;28;20052;-79
2021/07/22 03:50:30;;;;;;;4.20;2.85;;;;;;;;;;5073426;28;20053;-79
2021/07/22 03:52:57;;;;;;;4.35;2.25;;;;;;;;;;5073639;28;20053;-78
2021/07/22 03:55:26;;;;;;;5.45;2.88;;;;;;;;;;5073457;28;20566;-79
2021/07/22 03:57:53;;;;;;;6.25;2.38;;;;;;;;;;5073403;28;20059;-79
2021/07/22 04:00:19;;;;;;;5.72;2.10;;;;;;;;;;5073340;28;20052;-79
2021/07/22 04:02:46;;;;;;;5.63;2.78;;;;;;;;;;5073139;28;20117;-78
2021/07/22 04:05:12;;;;;;;5.78;2.25;;;;;;;;;;5073244;28;20045;-78
2021/07/22 04:07:39;;;;;;;3.97;3.15;;;;;;;;;;5073220;28;20174;-78
2021/07/22 04:10:06;;;;;;;5.68;2.80;;;;;;;;;;5073215;28;20040;-78
2021/07/22 04:12:33;;;;;;;4.82;3.10;;;;;;;;;;5073512;28;20056;-78
2021/07/22 04:15:00;;;;;;;6.18;4.13;;;;;;;;;;5073023;28;20501;-78
2021/07/22 04:17:26;;;;;;;3.90;3.08;;;;;;;;;;5073115;28;20056;-78
2021/07/22 04:19:53;;;;;;;3.95;2.75;;;;;;;;;;5073127;28;20668;-78
2021/07/22 04:22:19;;;;;;;3.20;1.90;;;;;;;;;;5072863;28;20524;-78
2021/07/22 04:24:46;;;;;;;7.80;2.60;;;;;;;;;;5072264;28;20064;-77
2021/07/22 04:27:12;;;;;;;6.68;3.10;;;;;;;;;;5072487;28;20094;-78
2021/07/22 04:29:40;;;;;;;4.28;2.33;;;;;;;;;;5072792;28;20052;-78
2021/07/22 04:32:07;;;;;;;3.72;1.65;;;;;;;;;;5073060;28;20052;-78
2021/07/22 04:34:34;;;;;;;4.70;2.90;;;;;;;;;;5072996;28;20056;-78
2021/07/22 04:37:00;;;;;;;6.15;3.17;;;;;;;;;;5072750;28;20427;-78
2021/07/22 04:39:27;;;;;;;5.53;3.55;;;;;;;;;;5072745;28;20106;-78
2021/07/22 04:41:53;;;;;;;19.20;15.27;;;;;;;;;;5072459;28;20049;-78
2021/07/22 04:44:20;;;;;;;11.90;9.32;;;;;;;;;;5072404;28;20537;-78
2021/07/22 04:46:48;;;;;;;10.70;9.57;;;;;;;;;;5072460;28;20060;-78
2021/07/22 04:49:14;;;;;;;10.20;7.22;;;;;;;;;;5072657;28;20519;-78
2021/07/22 04:51:41;;;;;;;7.00;4.53;;;;;;;;;;5072487;28;20455;-78
2021/07/22 04:54:07;;;;;;;5.47;3.42;;;;;;;;;;5072235;28;20106;-78
2021/07/22 04:56:34;;;;;;;6.10;3.13;;;;;;;;;;5072407;28;20044;-78
2021/07/22 04:59:00;;;;;;;5.55;3.08;;;;;;;;;;5072188;28;20397;-79
2021/07/22 05:01:27;;;;;;;5.07;3.05;;;;;;;;;;5072311;28;20102;-78
2021/07/22 05:03:55;;;;;;;5.47;3.70;;;;;;;;;;5072152;28;20091;-79
2021/07/22 05:06:21;;;;;;;5.32;2.78;;;;;;;;;;5072108;28;20056;-79
2021/07/22 05:08:48;;;;;;;5.13;2.13;;;;;;;;;;5072130;28;20098;-79
2021/07/22 05:11:15;;;;;;;7.43;4.28;;;;;;;;;;5071875;28;20090;-78
2021/07/22 05:13:42;;;;;;;5.53;3.28;;;;;;;;;;5071925;28;20139;-78
2021/07/22 05:16:09;;;;;;;4.25;2.40;;;;;;;;;;5071966;28;20099;-79
2021/07/22 05:18:36;;;;;;;4.72;3.40;;;;;;;;;;5071980;28;20044;-78
2021/07/22 05:21:05;;;;;;;7.13;3.63;;;;;;;;;;5071769;28;20049;-78
2021/07/22 05:23:31;;;;;;;3.85;1.65;;;;;;;;;;5071710;28;20446;-79
2021/07/22 05:25:58;;;;;;;5.28;2.63;;;;;;;;;;5071586;28;20049;-78
2021/07/22 05:28:24;;;;;;;4.88;2.13;;;;;;;;;;5069279;28;20049;-78
2021/07/22 05:30:51;;;;;;;7.80;3.55;;;;;;;;;;5071780;28;20048;-78
2021/07/22 05:33:17;;;;;;;3.90;3.03;;;;;;;;;;5071874;28;20637;-78
2021/07/22 05:35:44;;;;;;;4.50;2.38;;;;;;;;;;5071688;28;20044;-79
2021/07/22 05:38:12;;;;;;;3.83;1.77;;;;;;;;;;5071265;28;20052;-77
2021/07/22 05:40:38;;;;;;;3.65;2.38;;;;;;;;;;5071330;28;20051;-78
2021/07/22 05:43:05;;;;;;;3.15;1.90;;;;;;;;;;5071337;28;20048;-77
2021/07/22 05:45:31;;;;;;;3.13;1.88;;;;;;;;;;5071619;28;20044;-78
2021/07/22 05:47:58;;;;;;;3.92;2.33;;;;;;;;;;5071452;28;20067;-78
2021/07/22 05:50:24;;;;;;;3.63;1.98;;;;;;;;;;5071391;28;20064;-78
2021/07/22 05:52:51;;;;;;;5.85;2.17;;;;;;;;;;5071179;28;20056;-78
2021/07/22 05:55:19;;;;;;;2.75;1.65;;;;;;;;;;5071184;28;20558;-78
2021/07/22 05:57:45;;;;;;;2.85;1.95;;;;;;;;;;5071378;28;20056;-78
2021/07/22 06:00:12;;;;;;;4.80;2.38;;;;;;;;;;5071304;28;20071;-78
2021/07/22 06:02:39;;;;;;;3.67;2.10;;;;;;;;;;5071102;28;20056;-78
2021/07/22 06:05:06;;;;;;;5.78;2.38;;;;;;;;;;5071058;28;20048;-79
2021/07/22 06:07:32;;;;;;;4.57;2.17;;;;;;;;;;5070605;28;20048;-78
2021/07/22 06:09:59;;;;;;;5.72;2.70;;;;;;;;;;5070226;28;20063;-79
2021/07/22 06:12:29;;;;;;;3.03;2.15;;;;;;;;;;5070107;28;20052;-79
2021/07/22 06:14:56;;;;;;;3.15;1.90;;;;;;;;;;5070912;28;20094;-79
2021/07/22 06:17:23;;;;;;;4.65;2.85;;;;;;;;;;5070765;28;20052;-78
2021/07/22 06:19:49;;;;;;;3.42;1.67;;;;;;;;;;5070870;28;20052;-80
2021/07/22 06:22:16;;;;;;;2.75;1.55;;;;;;;;;;5070623;28;20052;-78
2021/07/22 06:24:42;;;;;;;2.58;1.98;;;;;;;;;;5070840;28;20098;-78
2021/07/22 06:27:11;;;;;;;3.65;1.70;;;;;;;;;;5070898;28;20185;-78
2021/07/22 06:29:39;;;;;;;2.05;1.50;;;;;;;;;;5070741;28;20064;-78
2021/07/22 06:32:06;;;;;;;2.45;1.05;;;;;;;;;;5070791;28;20086;-78
2021/07/22 06:34:36;;;;;;;1.05;0.90;;;;;;;;;;4499200;28;20002791;-78
2021/07/22 06:37:03;;;;;;;1.10;0.60;;;;;;;;;;5069815;28;20270;-80
2021/07/22 06:39:32;;;;;;;2.67;1.27;;;;;;;;;;5065947;28;20048;-80
2021/07/22 06:41:58;;;;;;;1.95;0.98;;;;;;;;;;5070703;28;20106;-78
2021/07/22 06:44:25;;;;;;;2.40;1.45;;;;;;;;;;5071004;28;20037;-79
2021/07/22 06:46:53;;;;;;;1.98;0.93;;;;;;;;;;5070183;28;20109;-78
2021/07/22 06:49:19;;;;;;;1.63;1.13;;;;;;;;;;5072578;28;20433;-78
2021/07/22 06:51:48;;;;;;;2.83;0.82;;;;;;;;;;5074925;28;20052;-79
2021/07/22 06:54:14;;;;;;;1.23;0.77;;;;;;;;;;5074851;28;20056;-78
2021/07/22 06:56:40;;;;;;;1.02;0.70;;;;;;;;;;5074599;28;20501;-78
2021/07/22 06:59:07;;;;;;;3.95;1.40;;;;;;;;;;5074671;28;20048;-79
2021/07/22 07:01:34;;;;;;;2.50;1.15;;;;;;;;;;5074605;28;20087;-77
2021/07/22 07:04:02;;;;;;;4.57;1.20;;;;;;;;;;5074176;28;20396;-79
2021/07/22 07:06:29;;;;;;;2.42;1.00;;;;;;;;;;5074639;28;20060;-78
2021/07/22 07:08:55;;;;;;;1.42;0.80;;;;;;;;;;5074559;28;20056;-78
2021/07/22 07:11:22;;;;;;;1.60;1.17;;;;;;;;;;5074394;28;20064;-77
2021/07/22 07:13:48;;;;;;;2.55;0.77;;;;;;;;;;5074654;28;20040;-77
2021/07/22 07:16:15;;;;;;;3.45;0.85;;;;;;;;;;5073901;28;20040;-79
2021/07/22 07:18:41;;;;;;;1.67;1.05;;;;;;;;;;5074055;28;20056;-79
2021/07/22 07:21:09;;;;;;;1.65;0.85;;;;;;;;;;5074535;28;20059;-79
2021/07/22 07:23:36;;;;;;;1.40;0.68;;;;;;;;;;5074219;28;20049;-78
2021/07/22 07:26:03;;;;;;;1.27;0.60;;;;;;;;;;5074225;28;20467;-79
2021/07/22 07:28:29;;;;;;;1.75;0.90;;;;;;;;;;5073956;28;20094;-78
2021/07/22 07:30:56;;;;;;;1.42;0.73;;;;;;;;;;5073828;28;20052;-79
2021/07/22 07:33:23;;;;;;;1.05;0.60;;;;;;;;;;5074086;28;20055;-79
2021/07/22 07:35:50;;;;;;;1.77;1.17;;;;;;;;;;5074161;28;20097;-78
2021/07/22 07:38:19;;;;;;;2.72;1.40;;;;;;;;;;5073802;28;20044;-77
2021/07/22 07:40:46;;;;;;;0.85;0.65;;;;;;;;;;5073910;28;20056;-77
2021/07/22 07:43:14;;;;;;;1.50;0.88;;;;;;;;;;5073841;28;20084;-78
2021/07/22 07:45:40;;;;;;;1.55;0.85;;;;;;;;;;5073568;28;20045;-78
2021/07/22 07:48:07;;;;;;;1.33;0.82;;;;;;;;;;5073877;28;20144;-79
2021/07/22 07:50:34;;;;;;;1.63;1.27;;;;;;;;;;5073755;28;20040;-77
2021/07/22 07:53:00;;;;;;;2.60;1.00;;;;;;;;;;5073586;28;20047;-78
2021/07/22 07:55:28;;;;;;;2.05;1.20;;;;;;;;;;5073512;28;20484;-77
2021/07/22 07:57:55;;;;;;;2.55;1.58;;;;;;;;;;5072814;28;20118;-79
2021/07/22 08:00:21;;;;;;;1.52;0.95;;;;;;;;;;5072467;28;20389;-78
2021/07/22 08:02:48;;;;;;;3.08;1.40;;;;;;;;;;5073287;28;20164;-78
2021/07/22 08:05:15;;;;;;;2.92;1.45;;;;;;;;;;5073376;28;20056;-79
2021/07/22 08:07:41;;;;;;;1.00;0.60;;;;;;;;;;5073489;28;20055;-76
2021/07/22 08:10:08;;;;;;;1.10;0.60;;;;;;;;;;5073298;28;20063;-77
2021/07/22 08:12:36;;;;;;;2.28;0.63;;;;;;;;;;5073276;28;20055;-77
2021/07/22 08:15:04;;;;;;;1.73;0.95;;;;;;;;;;5073207;28;20485;-77
2021/07/22 08:17:31;;;;;;;1.10;0.55;;;;;;;;;;5073424;28;20131;-78
2021/07/22 08:19:59;;;;;;;1.13;0.60;;;;;;;;;;5073204;28;20048;-78
2021/07/22 08:22:26;;;;;;;1.00;0.45;;;;;;;;;;5073080;28;20076;-77
2021/07/22 08:24:52;;;;;;;1.33;0.82;;;;;;;;;;5073105;28;20123;-77
2021/07/22 08:27:24;;;;;;;1.35;0.70;;;;;;;;;;5072852;28;20443;-78
2021/07/22 08:29:52;;;;;;;0.77;0.43;;;;;;;;;;5072975;28;20052;-80
2021/07/22 08:32:20;;;;;;;0.80;0.55;;;;;;;;;;5072890;28;20070;-77
2021/07/22 08:34:46;;;;;;;2.33;1.30;;;;;;;;;;5072797;28;20488;-77
2021/07/22 08:37:13;;;;;;;0.77;0.60;;;;;;;;;;5072851;28;20069;-77
2021/07/22 08:39:39;;;;;;;0.98;0.43;;;;;;;;;;5072643;28;20052;-80
2021/07/22 08:42:06;;;;;;;1.50;0.73;;;;;;;;;;5072954;28;20048;-77
2021/07/22 08:44:33;;;;;;;1.10;0.47;;;;;;;;;;5072818;28;20052;-78
2021/07/22 08:47:01;;;;;;;1.52;0.85;;;;;;;;;;5072664;28;20052;-78
2021/07/22 08:49:28;;;;;;;1.27;0.85;;;;;;;;;;5072938;28;20451;-81
2021/07/22 08:51:55;;;;;;;1.40;0.38;;;;;;;;;;5072453;28;20546;-77
2021/07/22 08:54:22;;;;;;;0.98;0.45;;;;;;;;;;5072275;28;20060;-79
2021/07/22 08:56:48;;;;;;;1.17;0.80;;;;;;;;;;5072635;28;20053;-78
2021/07/22 08:59:16;;;;;;;1.67;0.88;;;;;;;;;;5072515;28;20044;-77
2021/07/22 09:01:44;;;;;;;0.90;0.60;;;;;;;;;;5072502;28;20478;-77
2021/07/22 09:04:12;;;;;;;0.98;0.65;;;;;;;;;;5072349;28;20056;-78
2021/07/22 09:06:38;;;;;;;1.58;0.80;;;;;;;;;;5072181;28;20049;-78
2021/07/22 09:09:12;;;;;;;1.48;0.75;;;;;;;;;;5072046;28;20420;-78
2021/07/22 09:11:52;;;;;;;1.17;0.77;;;;;;;;;;5071635;28;20102;-80
2021/07/22 09:14:19;;;;;;;1.27;0.82;;;;;;;;;;5072196;28;20055;-78
2021/07/22 09:16:45;;;;;;;2.25;1.15;;;;;;;;;;5068840;28;20552;-77
2021/07/22 09:19:30;;;;;;;1.33;0.80;;;;;;;;;;5070367;28;20048;-77
2021/07/22 09:21:57;;;;;;;1.27;0.70;;;;;;;;;;5072040;28;20044;-79
2021/07/22 09:24:23;;;;;;;1.67;0.77;;;;;;;;;;5071578;28;20056;-78
2021/07/22 09:26:51;;;;;;;1.58;0.90;;;;;;;;;;5071858;28;20048;-81
2021/07/22 09:29:17;;;;;;;1.83;0.82;;;;;;;;;;5071636;28;20102;-78
2021/07/22 09:31:44;;;;;;;1.25;0.80;;;;;;;;;;5071550;28;20049;-78
2021/07/22 09:34:23;;;;;;;1.27;0.60;;;;;;;;;;5071608;28;20488;-76
2021/07/22 09:36:50;;;;;;;0.95;0.50;;;;;;;;;;5071485;28;20044;-77
2021/07/22 09:39:17;;;;;;;1.40;0.90;;;;;;;;;;5071587;28;20054;-80
2021/07/22 09:41:44;;;;;;;1.85;0.93;;;;;;;;;;5071481;28;20052;-78
2021/07/22 09:44:25;;;;;;;1.20;0.60;;;;;;;;;;5071191;28;20048;-77
2021/07/22 09:46:52;;;;;;;2.33;1.70;;;;;;;;;;5055564;28;20056;-78
2021/07/22 09:49:20;;;;;;;1.77;1.05;;;;;;;;;;5051350;28;20045;-78
2021/07/22 09:51:46;;;;;;;0.95;0.55;;;;;;;;;;5051413;28;20053;-78
2021/07/22 09:54:13;;;;;;;2.67;1.30;;;;;;;;;;5051326;28;20048;-77
2021/07/22 09:56:40;;;;;;;1.88;0.95;;;;;;;;;;5051282;28;20049;-77
2021/07/22 09:59:08;;;;;;;1.67;0.70;;;;;;;;;;5051154;28;20049;-77
2021/07/22 10:01:38;;;;;;;1.48;0.75;;;;;;;;;;5051365;28;20571;-77
2021/07/22 10:04:06;;;;;;;1.38;0.85;;;;;;;;;;5050956;28;20493;-78
2021/07/22 10:06:35;;;;;;;1.65;1.30;;;;;;;;;;5051081;28;20049;-78
2021/07/22 10:09:03;;;;;;;2.25;0.77;;;;;;;;;;5051220;28;20048;-78
2021/07/22 10:11:29;;;;;;;1.00;0.60;;;;;;;;;;5053591;28;20045;-78
2021/07/22 10:13:55;;;;;;;1.52;0.65;;;;;;;;;;5071166;28;20397;-78
2021/07/22 10:16:23;;;;;;;1.65;0.52;;;;;;;;;;5071085;28;20056;-79
2021/07/22 10:18:53;;;;;;;1.95;0.60;;;;;;;;;;5070867;28;20048;-77
2021/07/22 10:21:20;;;;;;;0.82;0.52;;;;;;;;;;5070961;28;20072;-77
2021/07/22 10:23:48;;;;;;;1.83;0.80;;;;;;;;;;5069758;28;20052;-76
2021/07/22 10:26:15;;;;;;;1.70;0.50;;;;;;;;;;5068674;28;20460;-78
2021/07/22 10:28:42;;;;;;;0.73;0.50;;;;;;;;;;5070416;28;20067;-79
2021/07/22 10:31:09;;;;;;;0.80;0.43;;;;;;;;;;5070936;28;20499;-78
2021/07/22 10:33:37;;;;;;;1.52;0.68;;;;;;;;;;5070805;28;20131;-77
2021/07/22 10:36:03;;;;;;;2.03;0.70;;;;;;;;;;5071141;28;20087;-76
2021/07/22 10:38:42;;;;;;;1.98;0.70;;;;;;;;;;5070532;28;20489;-80
2021/07/22 10:41:29;;;;;;;0.80;0.57;;;;;;;;;;5070644;28;20136;-79
2021/07/22 10:43:56;;;;;;;0.73;0.55;;;;;;;;;;5070312;28;20056;-79
2021/07/22 10:46:23;;;;;;;0.85;0.63;;;;;;;;;;5070641;28;20041;-80
2021/07/22 10:48:50;;;;;;;1.58;0.90;;;;;;;;;;5070559;28;20094;-77
2021/07/22 10:51:17;;;;;;;1.58;0.75;;;;;;;;;;5070511;28;20050;-76
2021/07/22 10:53:44;;;;;;;1.38;0.82;;;;;;;;;;5070623;28;20105;-80
2021/07/22 10:56:13;;;;;;;2.33;1.15;;;;;;;;;;5070646;28;20044;-76
2021/07/22 10:58:56;;;;;;;1.63;0.40;;;;;;;;;;5070917;28;20045;-78
2021/07/22 11:01:41;;;;;;;1.10;0.60;;;;;;;;;;5070376;28;20063;-78
2021/07/22 11:04:08;;;;;;;1.15;0.63;;;;;;;;;;5070584;28;20049;-80
2021/07/22 11:07:00;;;;;;;1.85;0.90;;;;;;;;;;5070537;28;20063;-77
2021/07/22 11:09:41;;;;;;;1.23;1.02;;;;;;;;;;5070429;28;20048;-79
2021/07/22 11:12:09;;;;;;;1.42;0.63;;;;;;;;;;5070464;28;20041;-78
2021/07/22 11:14:35;;;;;;;1.67;0.70;;;;;;;;;;5070478;28;20053;-78
2021/07/22 11:17:02;;;;;;;1.05;0.40;;;;;;;;;;5070341;28;20048;-76
2021/07/22 11:19:29;;;;;;;1.23;0.70;;;;;;;;;;5070247;28;20505;-77
2021/07/22 11:21:57;;;;;;;1.58;0.60;;;;;;;;;;5070202;28;20040;-78
2021/07/22 11:24:25;;;;;;;0.73;0.43;;;;;;;;;;5069432;28;20052;-78
2021/07/22 11:26:52;;;;;;;1.60;1.10;;;;;;;;;;5069282;28;20106;-77
2021/07/22 11:29:21;;;;;;;1.13;0.65;;;;;;;;;;5070180;28;20094;-77
2021/07/22 11:31:48;;;;;;;1.23;0.57;;;;;;;;;;5069268;28;20040;-78
2021/07/22 11:34:15;;;;;;;0.77;0.30;;;;;;;;;;4687968;28;10008973;-77
2021/07/22 11:36:42;;;;;;;7.13;1.40;;;;;;;;;;5073763;28;20048;-76
2021/07/22 11:39:09;;;;;;;0.60;0.30;;;;;;;;;;5073102;28;20114;-77
2021/07/22 11:41:35;;;;;;;1.45;0.50;;;;;;;;;;5073160;28;20056;-77
2021/07/22 11:44:02;;;;;;;1.88;0.52;;;;;;;;;;5073107;28;20040;-80
2021/07/22 11:46:37;;;;;;;2.58;0.68;;;;;;;;;;5072674;28;20083;-79
2021/07/22 11:49:16;;;;;;;1.02;0.40;;;;;;;;;;5070939;28;20053;-79
2021/07/22 11:51:43;;;;;;;0.80;0.40;;;;;;;;;;5070246;28;20546;-77
2021/07/22 11:54:11;;;;;;;2.05;1.05;;;;;;;;;;5072031;28;20048;-77
2021/07/22 11:56:38;;;;;;;1.48;0.52;;;;;;;;;;5072657;28;20044;-78
2021/07/22 11:59:07;;;;;;;0.85;0.43;;;;;;;;;;5072986;28;20060;-78
2021/07/22 12:01:34;;;;;;;1.10;0.50;;;;;;;;;;5072410;28;20052;-77
2021/07/22 12:04:02;;;;;;;1.25;0.68;;;;;;;;;;5072019;28;20491;-77
2021/07/22 12:06:29;;;;;;;0.73;0.43;;;;;;;;;;5072695;28;20460;-82
2021/07/22 12:09:03;;;;;;;0.98;0.50;;;;;;;;;;5072824;28;20527;-80
2021/07/22 12:11:30;;;;;;;1.73;1.15;;;;;;;;;;5072549;28;20052;-78
2021/07/22 12:13:56;;;;;;;0.50;0.30;;;;;;;;;;5073201;28;20488;-77
2021/07/22 12:16:24;;;;;;;0.60;0.32;;;;;;;;;;5073061;28;20056;-76
2021/07/22 12:18:52;;;;;;;2.58;0.98;;;;;;;;;;5073044;28;20044;-77
2021/07/22 12:24:08;;;;;;;;;;;;;;;;;;4236995;27;25244745;-91
2021/07/22 12:26:41;;;;;;;1.38;0.70;;;;;;;;;;5128493;28;20323;-92
2021/07/22 12:29:08;;;;;;;0.70;0.30;;;;;;;;;;5128372;28;20128;-89
2021/07/22 12:31:40;;;;;;;3.13;0.57;;;;;;;;;;5128794;28;20043;-94
2021/07/22 12:34:26;;;;;;;1.25;0.40;;;;;;;;;;5129722;28;20436;-92
2021/07/22 12:40:08;;;;;;;1.73;0.52;;;;;;;;;;5009331;28;20059;-92
2021/07/22 12:46:00;;;;;;;1.45;0.70;;;;;;;;;;5126767;28;20085;-93
2021/07/22 12:52:02;;;;;;;1.17;0.50;;;;;;;;;;5067490;28;20060;-94
2021/07/22 12:54:35;;;;;;;5.55;0.65;;;;;;;;;;5082764;28;20051;-91
2021/07/22 13:00:22;;;;;;;1.00;0.65;;;;;;;;;;5080518;28;20043;-96
2021/07/22 13:03:04;;;;;;;0.68;0.40;;;;;;;;;;5130013;28;20071;-91
2021/07/22 13:05:34;;;;;;;1.02;0.50;;;;;;;;;;5129748;28;20047;-91
2021/07/22 13:08:05;;;;;;;1.85;0.60;;;;;;;;;;5131077;28;20043;-91
2021/07/22 13:16:39;;;;;;;1.00;0.63;;;;;;;;;;5134696;28;20058;-92
2021/07/22 13:19:07;;;;;;;1.10;0.47;;;;;;;;;;5131334;28;20043;-90
2021/07/22 13:21:55;;;;;;;0.75;0.35;;;;;;;;;;5132208;28;20043;-95
2021/07/22 13:24:23;;;;;;;1.30;0.60;;;;;;;;;;5102923;28;20056;-85
2021/07/22 13:26:50;;;;;;;1.27;0.60;;;;;;;;;;5106752;28;20550;-86
2021/07/22 13:29:17;;;;;;;1.52;0.85;;;;;;;;;;5106240;28;20563;-88
2021/07/22 13:31:43;;;;;;;1.38;0.45;;;;;;;;;;5105858;28;20039;-89
2021/07/22 13:34:10;;;;;;;0.80;0.47;;;;;;;;;;5099440;28;20055;-89
2021/07/22 13:36:47;;;;;;;0.75;0.43;;;;;;;;;;5093311;28;20047;-90
2021/07/22 13:39:27;;;;;;;0.75;0.40;;;;;;;;;;5095345;28;20109;-94
2021/07/22 13:41:55;;;;;;;0.90;0.52;;;;;;;;;;5093862;28;20055;-87
2021/07/22 13:44:21;;;;;;;0.60;0.30;;;;;;;;;;5094515;28;20066;-90
2021/07/22 13:46:49;;;;;;;0.80;0.57;;;;;;;;;;5093022;28;20052;-89
2021/07/22 13:49:15;;;;;;;0.77;0.57;;;;;;;;;;5093531;28;20048;-89
2021/07/22 13:51:47;;;;;;;0.80;0.45;;;;;;;;;;5092890;28;20051;-91
2021/07/22 13:54:13;;;;;;;0.73;0.50;;;;;;;;;;5091829;28;20125;-89
2021/07/22 13:56:40;;;;;;;0.65;0.28;;;;;;;;;;5092229;28;20040;-88
2021/07/22 13:59:08;;;;;;;1.05;0.43;;;;;;;;;;5092857;28;20036;-90
2021/07/22 14:01:44;;;;;;;0.90;0.40;;;;;;;;;;5092541;28;20222;-90
2021/07/22 14:07:00;;;;;;;1.52;0.90;;;;;;;;;;5089049;28;20544;-93
2021/07/22 14:09:27;;;;;;;0.63;0.40;;;;;;;;;;5092568;28;20052;-89
2021/07/22 14:11:53;;;;;;;0.80;0.45;;;;;;;;;;5093655;28;20066;-88
2021/07/22 14:14:39;;;;;;;1.00;0.60;;;;;;;;;;5092350;28;20050;-89
2021/07/22 14:17:06;;;;;;;0.60;0.30;;;;;;;;;;5094003;28;20056;-89
2021/07/22 14:19:35;;;;;;;0.90;0.50;;;;;;;;;;5094133;28;20051;-89
2021/07/22 14:22:02;;;;;;;1.02;0.80;;;;;;;;;;5092418;28;20479;-89
2021/07/22 14:24:32;;;;;;;1.02;0.68;;;;;;;;;;5110741;28;20134;-92
2021/07/22 14:26:58;;;;;;;1.15;0.70;;;;;;;;;;5112865;28;20062;-88
2021/07/22 14:29:26;;;;;;;1.10;0.60;;;;;;;;;;5112251;28;20096;-88
2021/07/22 14:32:01;;;;;;;1.33;0.77;;;;;;;;;;5112029;28;20043;-90
2021/07/22 14:34:29;;;;;;;0.70;0.50;;;;;;;;;;5112695;28;20542;-88
2021/07/22 14:37:00;;;;;;;0.70;0.38;;;;;;;;;;5110803;28;20046;-88
2021/07/22 14:39:27;;;;;;;1.38;0.63;;;;;;;;;;5110983;28;20043;-87
2021/07/22 14:41:54;;;;;;;1.08;0.60;;;;;;;;;;5112183;28;20048;-86
2021/07/22 14:44:23;;;;;;;0.80;0.55;;;;;;;;;;5111559;28;20116;-91
2021/07/22 14:47:00;;;;;;;0.90;0.57;;;;;;;;;;5110051;28;20112;-90
2021/07/22 14:49:27;;;;;;;1.30;0.80;;;;;;;;;;5112005;28;20051;-90
2021/07/22 14:52:02;;;;;;;1.05;0.50;;;;;;;;;;5112175;28;20058;-91
2021/07/22 14:54:35;;;;;;;0.93;0.32;;;;;;;;;;5111844;28;20043;-91
2021/07/22 14:57:02;;;;;;;0.60;0.40;;;;;;;;;;5112019;28;20040;-90
2021/07/22 14:59:30;;;;;;;1.02;0.50;;;;;;;;;;5111491;28;20048;-89
2021/07/22 15:01:58;;;;;;;2.15;0.40;;;;;;;;;;5111034;28;20153;-88
2021/07/22 15:04:25;;;;;;;1.17;0.63;;;;;;;;;;5107107;28;20447;-90
2021/07/22 15:06:52;;;;;;;1.05;0.47;;;;;;;;;;5109284;28;20052;-86
2021/07/22 15:09:19;;;;;;;3.80;0.68;;;;;;;;;;5096583;28;20800;-89
2021/07/22 15:11:46;;;;;;;1.00;0.30;;;;;;;;;;5050568;28;20110;-90